Time;durP1;ratioP1;P1;durP2;ratioP2;P2;SDS_P1;SDS_P2;PMS_P1;PMS_P2;Temp;Humidity;BMP_temperature;BMP_pressure;BME280_temperature;BME280_humidity;BME280_pressure;Samples;Min_cycle;Max_cycle;Signal;HPM_P1;HPM_P2
2021/12/03 00:02:04;;;;;;;7.63;1.02;;;-1.00;99.90;;;-2.97;100.00;99620.28;4958812;28;20058;-79
2021/12/03 00:04:37;;;;;;;3.75;1.02;;;;;;;-2.95;100.00;99613.41;4881705;28;20037;-82
2021/12/03 00:07:04;;;;;;;7.00;0.77;;;-1.00;99.90;;;-2.97;100.00;99604.00;4921235;28;20555;-81
2021/12/03 00:09:34;;;;;;;2.03;1.17;;;-1.00;99.90;;;-2.91;100.00;99602.22;4930126;28;20102;-82
2021/12/03 00:12:10;;;;;;;9.70;1.00;;;-1.00;99.90;;;-2.97;100.00;99596.25;4892164;28;20030;-83
2021/12/03 00:14:36;;;;;;;2.28;0.85;;;-1.00;99.90;;;-2.92;100.00;99592.75;4974128;22;20050;-82
2021/12/03 00:17:11;;;;;;;3.58;1.00;;;-1.00;99.90;;;-2.86;100.00;99598.75;4919695;28;20030;-84
2021/12/03 00:19:38;;;;;;;7.80;1.47;;;;;;;-2.89;100.00;99594.47;4916903;28;20042;-83
2021/12/03 00:22:04;;;;;;;6.55;1.10;;;;;;;-2.86;100.00;99591.00;4905963;28;20058;-84
2021/12/03 00:24:39;;;;;;;3.03;1.05;;;-0.80;99.90;;;-2.75;100.00;99584.88;4921967;28;20074;-83
2021/12/03 00:27:34;;;;;;;3.03;0.82;;;;;;;-2.67;100.00;99583.94;4826510;28;20036;-86
2021/12/03 00:30:00;;;;;;;2.60;0.70;;;-0.70;99.90;;;-2.59;100.00;99585.56;4892759;28;20142;-83
2021/12/03 00:32:29;;;;;;;1.58;0.65;;;;;;;-2.51;100.00;99591.47;4857076;28;20031;-83
2021/12/03 00:35:04;;;;;;;11.65;0.90;;;-0.50;99.90;;;-2.49;100.00;99582.00;4934369;23;20033;-84
2021/12/03 00:37:30;;;;;;;2.17;0.73;;;-0.50;99.90;;;-2.48;100.00;99575.97;4943743;28;20136;-84
2021/12/03 00:39:57;;;;;;;4.00;0.45;;;-0.50;99.90;;;-2.44;100.00;99583.66;4915846;28;20029;-84
2021/12/03 00:42:33;;;;;;;7.13;0.65;;;;;;;-2.42;100.00;99577.59;4939446;28;20037;-85
2021/12/03 00:45:01;;;;;;;5.05;0.90;;;-0.40;99.90;;;-2.33;100.00;99582.69;4967172;28;20061;-83
2021/12/03 00:47:35;;;;;;;2.88;1.00;;;-0.40;99.90;;;-2.29;100.00;99581.78;4906111;28;20064;-81
2021/12/03 00:50:09;;;;;;;2.67;0.95;;;-0.30;99.90;;;-2.23;100.00;99580.81;4948544;28;20033;-80
2021/12/03 00:52:36;;;;;;;1.00;0.73;;;;;;;-2.24;100.00;99578.28;4902290;28;20084;-79
2021/12/03 00:55:05;;;;;;;5.93;0.75;;;;;;;-2.23;100.00;99578.25;4968384;23;20045;-85
2021/12/03 00:57:31;;;;;;;4.13;0.77;;;;;;;-2.24;100.00;99571.38;4933392;28;21558;-84
2021/12/03 01:00:04;;;;;;;2.38;1.02;;;-0.30;99.90;;;-2.32;100.00;99568.91;4915776;28;20037;-81
2021/12/03 01:02:31;;;;;;;10.93;1.17;;;;;;;-2.35;100.00;99565.53;4908205;28;20035;-82
2021/12/03 01:04:57;;;;;;;3.67;0.98;;;-0.40;99.90;;;-2.40;100.00;99565.56;4935275;28;20056;-81
2021/12/03 01:07:40;;;;;;;3.53;0.93;;;-0.50;99.90;;;-2.53;100.00;99558.84;4981314;28;20196;-84
2021/12/03 01:10:17;;;;;;;5.40;0.98;;;-0.60;99.90;;;-2.53;100.00;99561.44;4915913;28;20030;-80
2021/12/03 01:12:57;;;;;;;9.30;0.88;;;;;;;-2.59;100.00;99562.38;4910096;28;20093;-86
2021/12/03 01:15:37;;;;;;;6.13;1.13;;;-0.60;99.90;;;-2.54;100.00;99563.16;4901576;28;20505;-85
2021/12/03 01:18:16;;;;;;;1.70;0.95;;;-0.50;99.90;;;-2.44;100.00;99576.81;4907063;28;20556;-81
2021/12/03 01:20:44;;;;;;;3.30;0.95;;;-0.50;99.90;;;-2.43;100.00;99573.34;4892376;28;20534;-81
2021/12/03 01:23:19;;;;;;;5.97;1.48;;;;;;;-2.46;100.00;99570.81;4884453;28;20022;-83
2021/12/03 01:25:45;;;;;;;3.70;1.20;;;-0.50;99.90;;;-2.41;100.00;99571.59;4948300;28;20026;-85
2021/12/03 01:28:12;;;;;;;6.43;1.40;;;;;;;-2.48;100.00;99560.50;4903404;28;20398;-83
2021/12/03 01:30:48;;;;;;;12.23;1.35;;;-0.50;99.90;;;-2.45;100.00;99557.03;4924435;28;20066;-82
2021/12/03 01:33:14;;;;;;;7.75;2.10;;;-0.50;99.90;;;-2.44;100.00;99569.06;4878598;28;20057;-82
2021/12/03 01:35:40;;;;;;;7.68;2.17;;;-0.50;99.90;;;-2.49;100.00;99565.69;4904133;23;20393;-81
2021/12/03 01:38:16;;;;;;;6.07;1.98;;;-0.50;99.90;;;-2.47;100.00;99569.09;4915942;28;20077;-81
2021/12/03 01:40:42;;;;;;;2.45;1.42;;;-0.50;99.90;;;-2.45;100.00;99569.94;4912605;28;20047;-84
2021/12/03 01:52:07;;;;;;;12.10;2.17;;;;;;;-2.34;100.00;99580.97;5213777;23;20046;-83
2021/12/03 01:54:33;;;;;;;8.20;2.13;;;-0.50;99.90;;;-2.37;100.00;99581.00;4912469;28;20047;-82
2021/12/03 01:56:59;;;;;;;5.40;2.53;;;-0.40;99.90;;;-2.37;100.00;99585.31;4867618;28;20050;-82
2021/12/03 01:59:52;;;;;;;16.15;3.45;;;-0.40;99.90;;;-2.35;100.00;99576.69;4898977;28;20076;-82
2021/12/03 02:02:19;;;;;;;8.85;2.75;;;;;;;-2.35;100.00;99587.00;4887691;28;20046;-82
2021/12/03 02:05:12;;;;;;;5.07;2.75;;;-0.40;99.90;;;-2.43;100.00;99573.34;4905949;28;20124;-83
2021/12/03 02:07:38;;;;;;;13.75;3.17;;;;;;;-2.47;100.00;99574.25;4875105;28;20032;-83
2021/12/03 02:12:56;;;;;;;7.65;2.65;;;-0.50;99.90;;;-2.51;100.00;99573.41;4924375;28;20045;-83
2021/12/03 02:15:52;;;;;;;5.35;2.70;;;-0.60;99.90;;;-2.54;100.00;99576.03;4893782;28;20237;-83
2021/12/03 02:18:18;;;;;;;7.35;2.95;;;;;;;-2.46;100.00;99570.81;4919583;28;20053;-84
2021/12/03 02:20:56;;;;;;;8.48;3.10;;;;;;;-2.47;100.00;99569.09;4870353;28;20031;-83
2021/12/03 02:23:25;;;;;;;17.08;3.30;;;-0.50;99.90;;;-2.50;100.00;99569.16;4896864;28;20091;-87
2021/12/03 02:26:01;;;;;;;8.20;2.83;;;-0.50;99.90;;;-2.45;100.00;99577.66;4871340;28;20035;-84
2021/12/03 02:28:37;;;;;;;7.68;3.60;;;-0.60;99.90;;;-2.52;100.00;99566.56;4901648;28;20559;-83
2021/12/03 02:31:04;;;;;;;10.43;3.28;;;;;;;-2.54;100.00;99578.63;4866412;28;20036;-83
2021/12/03 02:33:33;;;;;;;8.52;3.00;;;-0.60;99.90;;;-2.49;100.00;99592.31;4899742;28;20069;-83
2021/12/03 02:36:07;;;;;;;5.93;3.20;;;;;;;-2.45;100.00;99602.59;4909751;28;20019;-85
2021/12/03 02:38:34;;;;;;;12.55;3.33;;;-0.40;99.90;;;-2.33;100.00;99602.47;4921772;28;20125;-82
2021/12/03 02:41:01;;;;;;;6.57;3.63;;;;;;;-2.28;100.00;99605.81;4927341;28;20096;-83
2021/12/03 02:43:38;;;;;;;8.73;3.45;;;;;;;-2.29;100.00;99606.69;4911446;28;20589;-85
2021/12/03 02:46:05;;;;;;;9.52;3.70;;;;;;;-2.29;100.00;99610.13;4888913;28;20038;-82
2021/12/03 02:48:54;;;;;;;7.60;3.22;;;-0.40;99.90;;;-2.33;100.00;99602.47;4915663;28;20038;-83
2021/12/03 02:51:21;;;;;;;6.95;3.72;;;;;;;-2.35;100.00;99601.63;4902991;28;20082;-83
2021/12/03 02:53:47;;;;;;;8.73;3.35;;;;;;;-2.50;100.00;99590.59;4900785;28;20076;-83
2021/12/03 02:56:25;;;;;;;7.75;3.45;;;-0.50;99.90;;;-2.51;100.00;99593.19;4893908;28;20109;-83
2021/12/03 02:58:51;;;;;;;7.10;3.40;;;;;;;-2.48;100.00;99608.66;4906042;28;20051;-83
2021/12/03 03:01:44;;;;;;;9.23;3.40;;;-0.50;99.90;;;-2.50;100.00;99600.91;4877167;28;20027;-83
2021/12/03 03:04:10;;;;;;;11.68;4.20;;;-0.60;99.90;;;-2.49;100.00;99612.06;4903350;28;20049;-83
2021/12/03 03:06:36;;;;;;;8.13;3.83;;;-0.60;99.90;;;-2.53;100.00;99616.44;4910459;28;20042;-82
2021/12/03 03:09:31;;;;;;;13.05;3.72;;;-0.60;99.90;;;-2.51;100.00;99626.72;4883092;28;20130;-82
2021/12/03 03:12:05;;;;;;;9.05;4.38;;;-0.60;99.90;;;-2.55;100.00;99623.31;4913433;28;20454;-82
2021/12/03 03:14:31;;;;;;;10.73;3.60;;;-0.50;99.90;;;-2.40;100.00;99632.59;4903959;28;20042;-82
2021/12/03 03:16:57;;;;;;;7.80;4.28;;;-0.50;99.90;;;-2.39;100.00;99638.63;4924406;28;20042;-82
2021/12/03 03:19:24;;;;;;;17.92;3.95;;;;;;;-2.38;100.00;99635.16;4909745;28;20073;-82
2021/12/03 03:22:27;;;;;;;7.13;3.78;;;-0.50;99.90;;;-2.52;100.00;99638.75;4958593;28;20022;-83
2021/12/03 03:25:00;;;;;;;9.15;3.45;;;;;;;-2.56;100.00;99638.81;4897591;28;20037;-83
2021/12/03 03:27:37;;;;;;;12.88;3.40;;;-0.60;99.90;;;-2.52;100.00;99648.22;4895338;28;20030;-83
2021/12/03 03:30:18;;;;;;;8.25;3.50;;;-0.60;99.90;;;-2.53;100.00;99651.63;4905249;28;20462;-82
2021/12/03 03:33:12;;;;;;;9.05;4.03;;;-0.60;99.90;;;-2.47;100.00;99656.75;4914551;28;20078;-83
2021/12/03 03:35:38;;;;;;;8.13;3.63;;;-0.50;99.90;;;-2.43;100.00;99652.41;4898556;28;20174;-86
2021/12/03 03:38:05;;;;;;;8.20;3.65;;;-0.40;99.90;;;-2.29;100.00;99659.13;4883390;28;20053;-84
2021/12/03 03:40:41;;;;;;;10.50;3.70;;;;;;;-2.28;100.00;99663.41;4912917;28;20042;-82
2021/12/03 03:43:07;;;;;;;15.85;4.80;;;-0.30;99.90;;;-2.24;100.00;99668.53;4879680;28;20592;-82
2021/12/03 03:46:04;;;;;;;12.27;3.60;;;-0.30;99.90;;;-2.19;100.00;99671.91;4914478;28;20035;-82
2021/12/03 03:48:38;;;;;;;10.63;3.80;;;-0.30;99.90;;;-2.20;100.00;99663.31;4931420;28;20022;-82
2021/12/03 03:51:05;;;;;;;16.75;4.55;;;;;;;-2.20;100.00;99665.03;4881513;28;20469;-82
2021/12/03 03:53:31;;;;;;;13.10;4.90;;;-0.20;99.90;;;-2.12;100.00;99673.53;4921382;28;20086;-83
2021/12/03 03:55:57;;;;;;;7.55;3.58;;;-0.20;99.90;;;-2.05;100.00;99675.19;4886434;28;20062;-83
2021/12/03 03:58:32;;;;;;;8.63;4.10;;;;;;;-2.02;100.00;99680.31;4916493;28;20045;-84
2021/12/03 04:00:59;;;;;;;12.35;4.45;;;-0.10;99.90;;;-2.02;100.00;99669.97;4890176;28;20145;-83
2021/12/03 04:03:33;;;;;;;9.57;4.35;;;-0.20;99.90;;;-2.13;100.00;99658.94;4889388;28;20114;-85
2021/12/03 04:06:02;;;;;;;6.50;3.08;;;;;;;-2.17;100.00;99654.69;4885407;28;20048;-84
2021/12/03 04:08:29;;;;;;;10.15;4.00;;;-0.30;99.90;;;-2.21;100.00;99656.44;4912419;28;20046;-83
2021/12/03 04:11:04;;;;;;;11.02;3.92;;;-0.30;99.90;;;-2.23;100.00;99657.34;4888474;28;20420;-83
2021/12/03 04:13:30;;;;;;;12.07;4.40;;;;;;;-2.23;100.00;99652.19;4912450;28;20526;-83
2021/12/03 04:16:23;;;;;;;14.90;4.50;;;;;;;-2.18;100.00;99655.53;4945244;28;20039;-83
2021/12/03 04:18:49;;;;;;;17.20;3.67;;;-0.30;99.90;;;-2.08;100.00;99667.47;4915077;28;20038;-83
2021/12/03 04:21:16;;;;;;;9.90;3.95;;;-0.20;99.90;;;-2.18;100.00;99668.44;4886681;28;20518;-82
2021/12/03 04:23:50;;;;;;;7.35;3.15;;;-0.30;99.90;;;-2.17;100.00;99660.69;4967864;28;20053;-84
2021/12/03 04:26:16;;;;;;;9.45;3.63;;;-0.30;99.90;;;-2.22;100.00;99659.06;4897912;28;20508;-83
2021/12/03 04:28:59;;;;;;;12.57;3.92;;;-0.20;99.90;;;-2.15;100.00;99656.38;4885144;28;20033;-83
2021/12/03 04:31:34;;;;;;;10.48;3.83;;;-0.20;99.90;;;-2.10;100.00;99657.16;4880315;28;20479;-82
2021/12/03 04:34:15;;;;;;;6.53;3.47;;;-0.10;99.90;;;-1.97;100.00;99659.59;4923969;28;20046;-83
2021/12/03 04:36:42;;;;;;;10.02;4.25;;;;;;;-1.96;100.00;99663.91;4890840;28;20046;-83
2021/12/03 04:39:08;;;;;;;6.75;3.30;;;0.00;99.90;;;-1.91;100.00;99675.84;4874741;28;20034;-83
2021/12/03 04:42:01;;;;;;;9.80;4.05;;;0.00;99.90;;;-1.90;100.00;99680.16;4879770;28;20105;-82
2021/12/03 04:44:27;;;;;;;7.53;2.95;;;0.00;99.90;;;-1.88;100.00;99678.41;4910153;28;20039;-82
2021/12/03 04:47:19;;;;;;;18.48;4.10;;;0.00;99.90;;;-1.89;100.00;99676.69;4878588;28;20117;-82
2021/12/03 04:49:45;;;;;;;7.05;4.03;;;0.00;99.90;;;-1.86;100.00;99681.81;4869855;28;20034;-82
2021/12/03 04:52:11;;;;;;;9.35;4.25;;;0.00;99.90;;;-1.84;100.00;99674.03;4912809;28;20088;-82
2021/12/03 04:54:46;;;;;;;14.95;4.20;;;;;;;-1.79;100.00;99686.88;4883618;28;20126;-82
2021/12/03 04:57:12;;;;;;;9.87;4.00;;;0.10;99.90;;;-1.71;100.00;99695.38;4870732;28;20058;-83
2021/12/03 04:59:40;;;;;;;11.13;4.32;;;;;;;-1.59;100.00;99708.16;4897042;28;20357;-82
2021/12/03 05:02:42;;;;;;;12.02;4.55;;;;;;;-1.50;100.00;99710.59;4926589;28;20130;-82
2021/12/03 05:05:08;;;;;;;11.45;4.60;;;0.40;99.90;;;-1.41;100.00;99726.84;4905480;28;20113;-82
2021/12/03 05:10:06;;;;;;;11.32;5.43;;;0.50;99.90;;;-1.41;100.00;99713.94;4926064;28;20130;-81
2021/12/03 05:12:38;;;;;;;9.52;5.03;;;;;;;-1.40;100.00;99713.03;4902193;28;20034;-83
2021/12/03 05:15:05;;;;;;;11.25;5.32;;;0.50;99.90;;;-1.37;100.00;99723.34;4903155;28;20050;-81
2021/12/03 05:17:31;;;;;;;12.75;4.88;;;0.50;99.90;;;-1.38;100.00;99724.19;4909771;28;20038;-83
2021/12/03 05:19:57;;;;;;;12.80;4.97;;;;;;;-1.35;100.00;99727.59;4909916;28;20568;-83
2021/12/03 05:22:31;;;;;;;12.07;5.50;;;;;;;-1.36;100.00;99722.44;4948310;28;20122;-83
2021/12/03 05:25:26;;;;;;;17.40;5.85;;;0.50;99.90;;;-1.38;100.00;99727.66;4928577;28;20061;-83
2021/12/03 05:27:53;;;;;;;17.30;6.35;;;0.50;99.90;;;-1.35;100.00;99739.66;4900660;28;20384;-83
2021/12/03 05:30:21;;;;;;;16.58;5.65;;;0.50;99.90;;;-1.38;100.00;99724.19;4893505;28;20065;-84
2021/12/03 05:32:47;;;;;;;13.25;6.15;;;0.50;99.90;;;-1.36;100.00;99737.94;4913025;28;20038;-82
2021/12/03 05:35:20;;;;;;;13.88;6.18;;;;;;;-1.35;100.00;99742.25;4906793;28;20033;-82
2021/12/03 05:37:57;;;;;;;13.77;6.18;;;0.50;99.90;;;-1.34;100.00;99756.84;4914164;28;20469;-83
2021/12/03 05:40:26;;;;;;;19.98;6.25;;;;;;;-1.36;100.00;99748.28;4904391;28;20042;-82
2021/12/03 05:42:53;;;;;;;17.63;6.85;;;0.50;99.90;;;-1.34;100.00;99757.75;4892099;28;20051;-82
2021/12/03 05:45:32;;;;;;;12.57;5.93;;;0.60;99.90;;;-1.31;100.00;99754.25;4896518;28;20038;-82
2021/12/03 05:48:11;;;;;;;13.27;5.65;;;0.60;99.90;;;-1.32;100.00;99753.41;4896644;28;20527;-81
2021/12/03 05:50:44;;;;;;;16.40;6.25;;;0.60;99.90;;;-1.31;100.00;99760.25;4893886;28;20833;-81
2021/12/03 05:53:10;;;;;;;11.48;5.85;;;0.60;99.90;;;-1.26;100.00;99765.38;4877062;28;20027;-84
2021/12/03 05:55:37;;;;;;;14.15;5.90;;;0.60;99.90;;;-1.29;100.00;99765.41;4905062;28;20039;-83
2021/12/03 05:58:03;;;;;;;14.27;6.68;;;;;;;-1.28;100.00;99765.38;4920460;28;20047;-82
2021/12/03 06:00:40;;;;;;;13.60;6.40;;;0.60;99.90;;;-1.23;100.00;99770.50;4933255;28;20462;-82
2021/12/03 06:03:06;;;;;;;15.75;6.28;;;;;;;-1.20;100.00;99770.44;4837463;28;20047;-83
2021/12/03 06:05:36;;;;;;;13.95;5.80;;;0.70;99.90;;;-1.20;100.00;99759.28;4942285;28;20065;-83
2021/12/03 06:08:11;;;;;;;14.30;6.00;;;0.70;99.90;;;-1.19;100.00;99769.56;4896151;28;20118;-82
2021/12/03 06:10:40;;;;;;;13.40;5.40;;;0.70;99.90;;;-1.12;100.00;99771.19;4904673;28;20027;-82
2021/12/03 06:13:08;;;;;;;20.83;7.00;;;;;;;-1.08;100.00;99772.88;4872813;28;20065;-84
2021/12/03 06:15:34;;;;;;;13.40;5.57;;;0.70;99.90;;;-1.09;100.00;99778.06;4879962;28;20031;-83
2021/12/03 06:18:00;;;;;;;11.63;5.05;;;0.80;99.90;;;-1.06;100.00;99772.81;4891586;28;20471;-83
2021/12/03 06:20:26;;;;;;;11.20;4.82;;;0.80;99.90;;;-1.07;100.00;99769.41;4906947;28;20035;-82
2021/12/03 06:22:53;;;;;;;23.45;15.93;;;0.80;99.90;;;-1.06;100.00;99773.72;4892480;28;20029;-84
2021/12/03 06:25:30;;;;;;;13.82;6.32;;;0.80;99.90;;;-1.06;100.00;99765.06;4882356;28;20722;-82
2021/12/03 06:27:58;;;;;;;11.10;5.95;;;0.80;99.90;;;-1.02;100.00;99778.81;4904695;28;20605;-82
2021/12/03 06:30:27;;;;;;;12.13;5.90;;;0.80;99.90;;;-1.01;100.00;99780.53;4860619;28;20034;-82
2021/12/03 06:32:55;;;;;;;14.20;6.88;;;0.90;99.90;;;-1.00;100.00;99780.50;4877416;28;20033;-82
2021/12/03 06:35:22;;;;;;;12.85;6.60;;;0.90;99.90;;;-1.01;100.00;99771.06;4877486;28;22945;-86
2021/12/03 06:37:57;;;;;;;12.93;5.53;;;0.90;99.90;;;-0.98;100.00;99780.47;4887617;28;20066;-81
2021/12/03 06:40:26;;;;;;;13.73;5.70;;;0.90;99.90;;;-0.99;100.00;99781.34;4888072;28;20039;-83
2021/12/03 06:43:02;;;;;;;12.60;5.68;;;0.80;99.90;;;-1.03;100.00;99772.81;4868589;28;20059;-81
2021/12/03 06:45:28;;;;;;;;;;;0.80;99.90;;;-0.96;100.00;99789.06;4894920;28;20031;-82
2021/12/03 06:47:54;;;;;;;9.10;5.07;;;0.80;99.90;;;-1.07;100.00;99779.72;4856787;28;20383;-81
2021/12/03 06:50:25;;;;;;;14.35;4.78;;;0.80;99.90;;;-1.05;100.00;99780.56;4892168;28;20043;-82
2021/12/03 06:53:02;;;;;;;9.57;5.18;;;;;;;-1.04;100.00;99786.59;4834560;28;20584;-83
2021/12/03 06:55:45;;;;;;;10.05;4.88;;;;;;;-1.01;100.00;99802.06;4889735;28;20026;-82
2021/12/03 06:58:29;;;;;;;8.45;4.25;;;0.90;99.90;;;-0.95;100.00;99814.03;4897204;28;20129;-83
2021/12/03 07:00:56;;;;;;;11.60;4.65;;;;;;;-0.93;100.00;99807.09;4921254;28;20035;-84
2021/12/03 07:03:22;;;;;;;16.20;4.78;;;0.90;99.90;;;-0.93;100.00;99807.09;4909776;28;20138;-82
2021/12/03 07:05:49;;;;;;;12.27;4.47;;;1.00;99.90;;;-0.89;100.00;99811.34;4878719;28;20038;-83
2021/12/03 07:08:24;;;;;;;15.55;5.10;;;0.90;99.90;;;-0.95;100.00;99803.69;4887831;28;20031;-84
2021/12/03 07:11:23;;;;;;;8.80;4.70;;;0.90;99.90;;;-0.91;100.00;99807.94;4890476;28;20062;-84
2021/12/03 07:13:49;;;;;;;8.52;4.43;;;1.00;99.90;;;-0.86;100.00;99814.75;4878274;28;20060;-83
2021/12/03 07:16:15;;;;;;;12.13;4.28;;;;;;;-0.90;100.00;99814.84;4859151;28;20035;-84
2021/12/03 07:18:51;;;;;;;15.27;4.57;;;;;;;-0.95;100.00;99811.44;4905855;28;20046;-83
2021/12/03 07:21:27;;;;;;;9.45;4.57;;;0.90;99.90;;;-0.89;100.00;99806.19;4902562;28;20038;-82
2021/12/03 07:23:53;;;;;;;8.32;4.40;;;0.90;99.90;;;-0.94;100.00;99795.91;4896441;28;20066;-82
2021/12/03 07:26:31;;;;;;;7.18;3.42;;;0.90;99.90;;;-0.90;100.00;99796.75;4896544;28;20038;-83
2021/12/03 07:28:57;;;;;;;10.10;4.30;;;;;;;-0.95;100.00;99789.06;4852540;28;20038;-85
2021/12/03 07:31:53;;;;;;;17.60;4.40;;;0.90;99.90;;;-0.98;100.00;99781.31;4910143;28;20046;-82
2021/12/03 07:34:19;;;;;;;15.55;4.35;;;0.80;99.90;;;-0.97;100.00;99782.19;4900774;28;20446;-85
2021/12/03 07:36:45;;;;;;;15.35;4.78;;;0.90;99.90;;;-0.98;100.00;99785.66;4869238;28;20383;-84
2021/12/03 07:39:18;;;;;;;16.13;4.55;;;0.80;99.90;;;-1.01;100.00;99776.22;4895797;28;20023;-84
2021/12/03 07:41:45;;;;;;;6.30;3.17;;;0.80;99.90;;;-1.06;100.00;99776.28;4889354;28;20031;-83
2021/12/03 07:44:12;;;;;;;9.25;4.00;;;0.80;99.90;;;-1.01;100.00;99791.72;4921382;28;20026;-83
2021/12/03 07:47:04;;;;;;;8.70;3.63;;;0.80;99.90;;;-1.01;100.00;99790.88;4926833;28;20041;-83
2021/12/03 07:49:30;;;;;;;8.10;4.13;;;0.80;99.90;;;-0.96;100.00;99807.16;4908512;28;20120;-81
2021/12/03 07:51:56;;;;;;;5.85;3.15;;;0.90;99.90;;;-0.98;100.00;99788.22;4885277;28;20588;-82
2021/12/03 07:54:30;;;;;;;6.13;3.15;;;0.80;99.90;;;-0.95;100.00;99758.03;4885713;28;20145;-83
2021/12/03 07:56:56;;;;;;;12.73;3.47;;;0.90;99.90;;;-1.03;100.00;99801.22;4906521;28;20046;-82
2021/12/03 07:59:22;;;;;;;6.07;2.80;;;0.90;99.90;;;-0.91;100.00;99813.94;4903816;28;20748;-82
2021/12/03 08:02:03;;;;;;;9.05;5.30;;;0.90;99.90;;;-0.92;100.00;99804.50;4922394;28;20061;-83
2021/12/03 08:04:29;;;;;;;10.30;4.88;;;0.90;99.90;;;-0.92;100.00;99789.00;4888536;28;20073;-81
2021/12/03 08:07:04;;;;;;;39.17;25.35;;;1.00;99.90;;;-0.83;100.00;99782.84;4911755;28;20031;-83
2021/12/03 08:09:31;;;;;;;1524.85;772.53;;;;;;;-0.72;100.00;99804.19;4880493;28;20025;-83
2021/12/03 08:12:05;;;;;;;11.57;7.30;;;1.10;99.90;;;-0.66;100.00;99798.94;4983702;28;20045;-81
2021/12/03 08:14:32;;;;;;;10.35;9.55;;;1.20;99.90;;;-0.57;100.00;99797.94;4882826;28;20058;-83
2021/12/03 08:17:10;;;;;;;13.40;3.20;;;;;;;-0.51;100.00;99797.00;4889388;28;20046;-82
2021/12/03 08:19:36;;;;;;;12.63;4.60;;;1.20;99.90;;;-0.55;100.00;99791.00;4892998;28;20038;-82
2021/12/03 08:22:03;;;;;;;9.38;3.67;;;1.30;99.90;;;-0.44;100.00;99789.09;4882787;28;20449;-83
2021/12/03 08:24:38;;;;;;;17.00;4.72;;;;;;;-0.48;100.00;99781.41;4869745;28;20027;-82
2021/12/03 08:27:05;;;;;;;9.13;4.47;;;1.20;99.90;;;-0.54;100.00;99774.63;4909485;28;20050;-84
2021/12/03 08:29:31;;;;;;;12.82;4.72;;;1.10;99.90;;;-0.59;100.00;99771.25;4943392;28;20088;-83
2021/12/03 08:34:52;;;;;;;9.20;3.92;;;;;;;-0.68;100.00;99768.81;4963239;28;20031;-83
2021/12/03 08:37:27;;;;;;;10.82;4.13;;;;;;;-0.68;100.00;99761.91;4916027;28;20125;-84
2021/12/03 08:39:53;;;;;;;13.90;5.25;;;1.10;99.90;;;-0.71;100.00;99769.72;4883703;28;20480;-86
2021/12/03 08:42:19;;;;;;;10.85;4.45;;;1.10;99.90;;;-0.68;100.00;99779.16;4897209;28;20058;-85
2021/12/03 08:44:45;;;;;;;14.98;5.03;;;1.10;99.90;;;-0.66;100.00;99782.59;4878892;28;20040;-85
2021/12/03 08:47:53;;;;;;;10.82;4.57;;;1.20;99.90;;;-0.58;100.00;99787.63;4892261;28;20061;-84
2021/12/03 08:50:36;;;;;;;11.27;4.15;;;1.20;99.90;;;-0.61;100.00;99791.09;4915038;28;21919;-84
2021/12/03 08:56:07;;;;;;;11.82;4.45;;;;;;;-0.60;100.00;99798.00;4902147;28;20032;-87
2021/12/03 08:58:33;;;;;;;7.95;4.53;;;1.10;99.90;;;-0.61;100.00;99809.22;4899767;28;20175;-84
2021/12/03 09:01:00;;;;;;;10.95;4.38;;;1.20;99.90;;;-0.62;100.00;99804.94;4903829;28;20160;-82
2021/12/03 09:03:35;;;;;;;14.60;4.53;;;;;;;-0.60;100.00;99805.75;4866572;28;20023;-84
2021/12/03 09:06:02;;;;;;;12.63;5.32;;;;;;;-0.66;100.00;99809.28;4898688;28;20037;-84
2021/12/03 09:08:39;;;;;;;9.90;4.45;;;;;;;-0.67;100.00;99810.16;4919017;28;20049;-83
2021/12/03 09:11:06;;;;;;;12.50;4.90;;;;;;;-0.64;100.00;99814.44;4918705;28;20043;-84
2021/12/03 09:13:43;;;;;;;15.63;6.28;;;1.20;99.90;;;-0.65;100.00;99818.75;4903103;28;20568;-83
2021/12/03 09:16:13;;;;;;;13.32;6.15;;;;;;;-0.66;100.00;99821.34;4921275;28;21583;-83
2021/12/03 09:18:51;;;;;;;12.68;5.72;;;1.00;99.90;;;-0.70;100.00;99809.34;4905136;28;20113;-84
2021/12/03 09:21:33;;;;;;;11.68;5.35;;;1.00;99.90;;;-0.74;100.00;99816.28;4873631;28;20988;-83
2021/12/03 09:24:22;;;;;;;15.65;6.05;;;;;;;-0.83;100.00;99816.44;4870106;28;20037;-83
2021/12/03 09:27:03;;;;;;;12.88;5.78;;;;;;;-0.79;100.00;99823.28;4867987;28;20110;-83
2021/12/03 09:29:52;;;;;;;12.95;5.90;;;1.00;99.90;;;-0.73;100.00;99815.44;4901740;28;20049;-82
2021/12/03 09:32:28;;;;;;;16.20;6.13;;;;;;;-0.61;100.00;99824.72;4866388;28;20069;-85
2021/12/03 09:35:02;;;;;;;11.00;5.60;;;;;;;-0.52;100.00;99826.31;4902694;28;20034;-80
2021/12/03 09:37:31;;;;;;;16.30;6.78;;;;;;;-0.47;100.00;99815.03;4900139;28;20054;-84
2021/12/03 09:40:31;;;;;;;15.93;6.70;;;1.30;99.90;;;-0.44;100.00;99824.47;4862878;28;20035;-82
2021/12/03 09:43:24;;;;;;;19.50;6.28;;;1.30;99.90;;;-0.43;100.00;99823.59;4876340;28;20041;-83
2021/12/03 09:46:30;;;;;;;24.88;6.53;;;1.30;99.90;;;-0.49;100.00;99805.59;4876980;28;20489;-83
2021/12/03 09:52:17;;;;;;;18.63;5.90;;;;;;;-0.36;100.00;99826.94;4898968;28;20019;-83
2021/12/03 09:54:56;;;;;;;14.10;6.18;;;;;;;-0.28;100.00;99833.69;4890861;28;20046;-83
2021/12/03 10:00:32;;;;;;;19.55;6.95;;;1.50;99.90;;;-0.16;100.00;99830.03;4910859;28;20053;-81
2021/12/03 10:09:57;;;;;;;26.02;6.40;;;;;;;-0.24;100.00;99806.00;4914600;28;20080;-82
2021/12/03 10:12:16;;;;;;;13.60;5.60;;;1.50;99.90;;;-0.25;100.00;99786.22;4951387;28;20606;-82
2021/12/03 10:15:33;;;;;;;9.32;4.78;;;1.50;99.90;;;-0.27;100.00;99806.09;4886418;28;20151;-81
2021/12/03 10:17:49;;;;;;;17.33;6.80;;;1.50;99.90;;;-0.25;100.00;99809.50;4892655;28;20173;-81
2021/12/03 10:20:51;;;;;;;16.45;7.05;;;1.50;99.90;;;-0.24;100.00;99806.00;4919359;28;20038;-81
2021/12/03 10:29:24;;;;;;;14.90;6.55;;;1.50;99.90;;;-0.15;100.00;99798.13;4924864;28;20095;-83
2021/12/03 10:54:44;;;;;;;18.73;6.20;;;1.60;99.90;;;-0.09;100.00;99781.59;4914299;28;20046;-79
2021/12/03 11:06:08;;;;;;;;;;;1.70;99.90;;;-0.03;100.00;99790.09;4897019;28;20091;-79
2021/12/03 11:11:37;;;;;;;9.93;5.30;;;1.60;99.90;;;-0.03;100.00;99791.84;4877280;28;20028;-80
2021/12/03 12:38:33;;;;;;;12.63;4.70;;;1.60;99.90;;;-0.14;100.00;99768.75;4909182;28;20120;-80
2021/12/03 12:43:18;;;;;;;10.85;4.65;;;1.60;99.90;;;-0.11;100.00;99760.06;4880524;28;20052;-80
2021/12/03 13:20:53;;;;;;;17.35;6.15;;;1.40;99.90;;;-0.37;100.00;99771.75;4928114;28;20038;-79
2021/12/03 14:12:42;;;;;;;28.15;9.02;;;1.20;99.90;;;-0.59;100.00;99780.75;4892926;28;20084;-80
2021/12/03 14:43:48;;;;;;;29.77;8.38;;;;;;;-0.50;100.00;99778.84;4918408;28;20073;-79
2021/12/03 14:46:34;;;;;;;27.50;8.90;;;1.30;99.90;;;-0.49;100.00;99774.56;4903362;28;20048;-80
2021/12/03 14:49:23;;;;;;;15.57;6.93;;;1.30;99.90;;;-0.47;100.00;99778.81;4892972;28;20430;-80
2021/12/03 14:52:07;;;;;;;25.73;8.48;;;1.40;99.90;;;-0.48;100.00;99768.50;4901454;28;20042;-79
2021/12/03 14:54:51;;;;;;;23.83;8.20;;;1.30;99.90;;;-0.43;100.00;99775.31;4906851;28;20070;-80
2021/12/03 15:00:12;;;;;;;26.23;8.45;;;1.30;99.90;;;-0.49;100.00;99766.78;4911171;28;20066;-79
2021/12/03 15:09:08;;;;;;;34.55;8.48;;;1.10;99.90;;;-0.44;100.00;99775.31;4922192;28;20061;-79
2021/12/03 15:14:43;;;;;;;23.80;7.38;;;1.40;99.90;;;-0.37;100.00;99776.91;4896770;28;20037;-79
2021/12/03 15:33:12;;;;;;;24.58;8.02;;;1.40;99.90;;;-0.46;100.00;99733.09;4874998;28;20038;-79
2021/12/03 15:38:29;;;;;;;22.95;7.85;;;1.40;99.90;;;-0.43;100.00;99739.09;4872857;28;20046;-80
2021/12/03 16:13:50;;;;;;;20.75;7.03;;;1.50;99.90;;;-0.33;100.00;99718.22;4861522;28;20486;-80
2021/12/03 16:43:58;;;;;;;26.00;7.70;;;1.60;99.90;;;-0.31;100.00;99675.06;4908580;28;20045;-79
2021/12/03 16:52:07;;;;;;;23.85;7.72;;;;;;;-0.29;100.00;99673.31;4869477;28;20111;-79
2021/12/03 16:54:40;;;;;;;22.92;6.68;;;1.60;99.90;;;-0.23;100.00;99671.47;4917035;28;20054;-79
2021/12/03 16:57:08;;;;;;;19.33;8.20;;;1.60;99.90;;;-0.26;100.00;99668.94;4945281;28;20030;-79
2021/12/03 16:59:34;;;;;;;21.52;8.00;;;1.50;99.90;;;-0.29;100.00;99663.81;4875929;28;20163;-80
2021/12/03 17:02:14;;;;;;;27.67;8.25;;;1.60;99.90;;;-0.21;100.00;99661.09;4881142;28;20027;-80
2021/12/03 17:12:31;;;;;;;19.55;7.70;;;1.70;99.90;;;-0.13;100.00;99647.97;4922005;28;20455;-78
2021/12/03 17:30:08;;;;;;;17.52;6.63;;;1.70;99.90;;;-0.15;100.00;99610.94;4817141;28;20133;-82